sensor_id;sensor_type;location;lat;lon;timestamp;P1;durP1;ratioP1;P2;durP2;ratioP2
75191;SDS011;63771;52.580;9.734;2023-05-10T00:02:09;4.95;;;2.40;;
75191;SDS011;63771;52.580;9.734;2023-05-10T00:04:34;6.57;;;2.80;;
75191;SDS011;63771;52.580;9.734;2023-05-10T00:07:00;3.80;;;2.47;;
75191;SDS011;63771;52.580;9.734;2023-05-10T00:09:25;4.03;;;2.90;;
75191;SDS011;63771;52.580;9.734;2023-05-10T00:11:50;3.20;;;3.00;;
75191;SDS011;63771;52.580;9.734;2023-05-10T00:14:16;2.80;;;2.60;;
75191;SDS011;63771;52.580;9.734;2023-05-10T00:16:42;3.63;;;3.20;;
75191;SDS011;63771;52.580;9.734;2023-05-10T00:19:07;3.47;;;3.20;;
75191;SDS011;63771;52.580;9.734;2023-05-10T00:21:32;2.80;;;2.60;;
75191;SDS011;63771;52.580;9.734;2023-05-10T00:23:58;3.25;;;3.00;;
75191;SDS011;63771;52.580;9.734;2023-05-10T00:26:24;2.63;;;2.53;;
75191;SDS011;63771;52.580;9.734;2023-05-10T00:28:49;3.38;;;3.10;;
75191;SDS011;63771;52.580;9.734;2023-05-10T00:31:15;4.03;;;3.73;;
75191;SDS011;63771;52.580;9.734;2023-05-10T00:33:40;6.47;;;3.40;;
75191;SDS011;63771;52.580;9.734;2023-05-10T00:36:05;3.07;;;2.83;;
75191;SDS011;63771;52.580;9.734;2023-05-10T00:38:32;3.05;;;2.85;;
75191;SDS011;63771;52.580;9.734;2023-05-10T00:40:58;3.33;;;3.03;;
75191;SDS011;63771;52.580;9.734;2023-05-10T00:43:23;4.73;;;3.60;;
75191;SDS011;63771;52.580;9.734;2023-05-10T00:45:48;3.33;;;3.03;;
75191;SDS011;63771;52.580;9.734;2023-05-10T00:48:14;5.18;;;3.30;;
75191;SDS011;63771;52.580;9.734;2023-05-10T00:50:39;4.30;;;3.90;;
75191;SDS011;63771;52.580;9.734;2023-05-10T00:53:05;4.03;;;3.35;;
75191;SDS011;63771;52.580;9.734;2023-05-10T00:55:31;5.53;;;3.17;;
75191;SDS011;63771;52.580;9.734;2023-05-10T00:57:56;4.13;;;3.80;;
75191;SDS011;63771;52.580;9.734;2023-05-10T01:00:21;3.45;;;3.15;;
75191;SDS011;63771;52.580;9.734;2023-05-10T01:02:47;3.50;;;3.20;;
75191;SDS011;63771;52.580;9.734;2023-05-10T01:05:13;5.32;;;3.85;;
75191;SDS011;63771;52.580;9.734;2023-05-10T01:07:39;3.97;;;3.15;;
75191;SDS011;63771;52.580;9.734;2023-05-10T01:10:07;5.18;;;4.63;;
75191;SDS011;63771;52.580;9.734;2023-05-10T01:12:37;4.57;;;4.18;;
75191;SDS011;63771;52.580;9.734;2023-05-10T01:15:05;3.80;;;3.50;;
75191;SDS011;63771;52.580;9.734;2023-05-10T01:17:32;5.60;;;3.88;;
75191;SDS011;63771;52.580;9.734;2023-05-10T01:19:59;4.15;;;3.85;;
75191;SDS011;63771;52.580;9.734;2023-05-10T01:22:31;4.85;;;4.43;;
75191;SDS011;63771;52.580;9.734;2023-05-10T01:28:32;5.75;;;3.83;;
75191;SDS011;63771;52.580;9.734;2023-05-10T01:36:48;3.72;;;3.38;;
75191;SDS011;63771;52.580;9.734;2023-05-10T01:41:55;5.55;;;4.60;;
75191;SDS011;63771;52.580;9.734;2023-05-10T01:49:59;5.38;;;3.80;;
75191;SDS011;63771;52.580;9.734;2023-05-10T01:52:32;6.03;;;3.53;;
75191;SDS011;63771;52.580;9.734;2023-05-10T01:55:02;4.25;;;3.85;;
75191;SDS011;63771;52.580;9.734;2023-05-10T01:57:32;4.82;;;4.07;;
75191;SDS011;63771;52.580;9.734;2023-05-10T02:00:01;4.50;;;4.20;;
75191;SDS011;63771;52.580;9.734;2023-05-10T02:02:28;3.83;;;3.55;;
75191;SDS011;63771;52.580;9.734;2023-05-10T02:04:58;4.28;;;3.97;;
75191;SDS011;63771;52.580;9.734;2023-05-10T02:07:24;5.53;;;4.10;;
75191;SDS011;63771;52.580;9.734;2023-05-10T02:09:51;4.25;;;3.88;;
75191;SDS011;63771;52.580;9.734;2023-05-10T02:12:17;6.32;;;4.32;;
75191;SDS011;63771;52.580;9.734;2023-05-10T02:14:43;4.60;;;4.18;;
75191;SDS011;63771;52.580;9.734;2023-05-10T02:17:10;5.25;;;4.22;;
75191;SDS011;63771;52.580;9.734;2023-05-10T02:19:37;5.13;;;4.00;;
75191;SDS011;63771;52.580;9.734;2023-05-10T02:22:04;8.07;;;4.32;;
75191;SDS011;63771;52.580;9.734;2023-05-10T02:24:30;5.97;;;4.15;;
75191;SDS011;63771;52.580;9.734;2023-05-10T02:26:57;4.55;;;4.15;;
75191;SDS011;63771;52.580;9.734;2023-05-10T02:29:24;4.75;;;4.35;;
75191;SDS011;63771;52.580;9.734;2023-05-10T02:31:53;3.88;;;3.58;;
75191;SDS011;63771;52.580;9.734;2023-05-10T02:34:21;4.22;;;3.83;;
75191;SDS011;63771;52.580;9.734;2023-05-10T02:36:48;6.75;;;3.50;;
75191;SDS011;63771;52.580;9.734;2023-05-10T02:39:15;6.35;;;4.25;;
75191;SDS011;63771;52.580;9.734;2023-05-10T02:41:43;5.35;;;4.38;;
75191;SDS011;63771;52.580;9.734;2023-05-10T02:44:11;4.65;;;3.83;;
75191;SDS011;63771;52.580;9.734;2023-05-10T02:46:39;8.70;;;4.53;;
75191;SDS011;63771;52.580;9.734;2023-05-10T02:49:04;5.88;;;4.53;;
75191;SDS011;63771;52.580;9.734;2023-05-10T02:51:31;7.95;;;4.90;;
75191;SDS011;63771;52.580;9.734;2023-05-10T02:54:15;5.07;;;4.13;;
75191;SDS011;63771;52.580;9.734;2023-05-10T02:56:47;18.27;;;5.45;;
75191;SDS011;63771;52.580;9.734;2023-05-10T02:59:15;5.95;;;3.88;;
75191;SDS011;63771;52.580;9.734;2023-05-10T03:01:41;5.22;;;4.20;;
75191;SDS011;63771;52.580;9.734;2023-05-10T03:04:06;4.97;;;4.57;;
75191;SDS011;63771;52.580;9.734;2023-05-10T03:06:32;6.35;;;3.80;;
75191;SDS011;63771;52.580;9.734;2023-05-10T03:08:57;5.28;;;4.38;;
75191;SDS011;63771;52.580;9.734;2023-05-10T03:14:16;4.43;;;4.07;;
75191;SDS011;63771;52.580;9.734;2023-05-10T03:17:06;5.57;;;4.57;;
75191;SDS011;63771;52.580;9.734;2023-05-10T03:19:56;6.20;;;5.70;;
75191;SDS011;63771;52.580;9.734;2023-05-10T03:22:29;5.30;;;4.95;;
75191;SDS011;63771;52.580;9.734;2023-05-10T03:24:57;4.80;;;4.18;;
75191;SDS011;63771;52.580;9.734;2023-05-10T03:27:25;5.20;;;4.78;;
75191;SDS011;63771;52.580;9.734;2023-05-10T03:29:52;5.03;;;4.55;;
75191;SDS011;63771;52.580;9.734;2023-05-10T03:32:19;4.47;;;4.20;;
75191;SDS011;63771;52.580;9.734;2023-05-10T03:34:45;5.82;;;4.97;;
75191;SDS011;63771;52.580;9.734;2023-05-10T03:37:10;6.47;;;5.43;;
75191;SDS011;63771;52.580;9.734;2023-05-10T03:39:35;4.75;;;4.20;;
75191;SDS011;63771;52.580;9.734;2023-05-10T03:42:01;5.13;;;4.78;;
75191;SDS011;63771;52.580;9.734;2023-05-10T03:44:26;5.93;;;4.53;;
75191;SDS011;63771;52.580;9.734;2023-05-10T03:46:52;4.63;;;4.17;;
75191;SDS011;63771;52.580;9.734;2023-05-10T03:49:17;5.20;;;4.60;;
75191;SDS011;63771;52.580;9.734;2023-05-10T03:51:42;5.03;;;4.27;;
75191;SDS011;63771;52.580;9.734;2023-05-10T03:54:08;4.50;;;3.90;;
75191;SDS011;63771;52.580;9.734;2023-05-10T03:56:33;5.97;;;5.47;;
75191;SDS011;63771;52.580;9.734;2023-05-10T03:58:58;4.97;;;4.47;;
75191;SDS011;63771;52.580;9.734;2023-05-10T04:01:24;5.68;;;5.18;;
75191;SDS011;63771;52.580;9.734;2023-05-10T04:03:49;5.37;;;4.57;;
75191;SDS011;63771;52.580;9.734;2023-05-10T04:06:14;5.57;;;5.17;;
75191;SDS011;63771;52.580;9.734;2023-05-10T04:08:40;5.90;;;5.45;;
75191;SDS011;63771;52.580;9.734;2023-05-10T04:11:14;6.00;;;5.20;;
75191;SDS011;63771;52.580;9.734;2023-05-10T04:13:39;5.53;;;5.03;;
75191;SDS011;63771;52.580;9.734;2023-05-10T04:16:05;5.63;;;5.13;;
75191;SDS011;63771;52.580;9.734;2023-05-10T04:18:30;7.47;;;4.80;;
75191;SDS011;63771;52.580;9.734;2023-05-10T04:20:56;6.18;;;4.80;;
75191;SDS011;63771;52.580;9.734;2023-05-10T04:23:21;5.77;;;5.17;;
75191;SDS011;63771;52.580;9.734;2023-05-10T04:25:47;5.85;;;5.38;;
75191;SDS011;63771;52.580;9.734;2023-05-10T04:28:12;6.57;;;4.87;;
75191;SDS011;63771;52.580;9.734;2023-05-10T04:30:38;6.33;;;5.73;;
75191;SDS011;63771;52.580;9.734;2023-05-10T04:33:03;6.43;;;5.10;;
75191;SDS011;63771;52.580;9.734;2023-05-10T04:35:28;5.80;;;5.30;;
75191;SDS011;63771;52.580;9.734;2023-05-10T04:37:54;5.28;;;4.80;;
75191;SDS011;63771;52.580;9.734;2023-05-10T04:40:19;8.38;;;4.88;;
75191;SDS011;63771;52.580;9.734;2023-05-10T04:42:45;5.82;;;5.28;;
75191;SDS011;63771;52.580;9.734;2023-05-10T04:45:10;4.97;;;4.57;;
75191;SDS011;63771;52.580;9.734;2023-05-10T04:47:36;8.85;;;5.43;;
75191;SDS011;63771;52.580;9.734;2023-05-10T04:50:02;6.18;;;4.50;;
75191;SDS011;63771;52.580;9.734;2023-05-10T04:52:28;5.78;;;4.65;;
75191;SDS011;63771;52.580;9.734;2023-05-10T04:54:54;5.47;;;4.63;;
75191;SDS011;63771;52.580;9.734;2023-05-10T04:57:19;5.38;;;4.88;;
75191;SDS011;63771;52.580;9.734;2023-05-10T04:59:44;5.22;;;4.82;;
75191;SDS011;63771;52.580;9.734;2023-05-10T05:02:10;10.18;;;4.95;;
75191;SDS011;63771;52.580;9.734;2023-05-10T05:04:35;7.10;;;5.07;;
75191;SDS011;63771;52.580;9.734;2023-05-10T05:07:00;6.00;;;4.70;;
75191;SDS011;63771;52.580;9.734;2023-05-10T05:09:26;6.65;;;5.47;;
75191;SDS011;63771;52.580;9.734;2023-05-10T05:11:51;5.72;;;5.05;;
75191;SDS011;63771;52.580;9.734;2023-05-10T05:14:17;5.20;;;4.15;;
75191;SDS011;63771;52.580;9.734;2023-05-10T05:16:42;5.15;;;4.82;;
75191;SDS011;63771;52.580;9.734;2023-05-10T05:19:07;5.57;;;5.17;;
75191;SDS011;63771;52.580;9.734;2023-05-10T05:21:33;6.10;;;5.20;;
75191;SDS011;63771;52.580;9.734;2023-05-10T05:23:58;5.90;;;5.27;;
75191;SDS011;63771;52.580;9.734;2023-05-10T05:26:23;5.43;;;4.93;;
75191;SDS011;63771;52.580;9.734;2023-05-10T05:28:49;5.83;;;5.13;;
75191;SDS011;63771;52.580;9.734;2023-05-10T05:31:17;6.03;;;5.43;;
75191;SDS011;63771;52.580;9.734;2023-05-10T05:33:42;6.53;;;6.03;;
75191;SDS011;63771;52.580;9.734;2023-05-10T05:36:08;6.68;;;6.10;;
75191;SDS011;63771;52.580;9.734;2023-05-10T05:38:34;9.55;;;5.43;;
75191;SDS011;63771;52.580;9.734;2023-05-10T05:40:59;10.95;;;5.57;;
75191;SDS011;63771;52.580;9.734;2023-05-10T05:43:25;6.50;;;5.85;;
75191;SDS011;63771;52.580;9.734;2023-05-10T05:45:52;6.63;;;6.03;;
75191;SDS011;63771;52.580;9.734;2023-05-10T05:48:18;8.10;;;6.30;;
75191;SDS011;63771;52.580;9.734;2023-05-10T05:50:43;6.47;;;5.97;;
75191;SDS011;63771;52.580;9.734;2023-05-10T05:53:09;6.80;;;6.28;;
75191;SDS011;63771;52.580;9.734;2023-05-10T05:55:34;6.40;;;5.70;;
75191;SDS011;63771;52.580;9.734;2023-05-10T05:57:59;6.40;;;5.90;;
75191;SDS011;63771;52.580;9.734;2023-05-10T06:00:24;5.47;;;5.07;;
75191;SDS011;63771;52.580;9.734;2023-05-10T06:02:50;7.20;;;6.60;;
75191;SDS011;63771;52.580;9.734;2023-05-10T06:05:16;6.70;;;6.10;;
75191;SDS011;63771;52.580;9.734;2023-05-10T06:07:41;6.75;;;6.25;;
75191;SDS011;63771;52.580;9.734;2023-05-10T06:10:07;7.18;;;6.47;;
75191;SDS011;63771;52.580;9.734;2023-05-10T06:12:33;6.53;;;5.88;;
75191;SDS011;63771;52.580;9.734;2023-05-10T06:14:58;7.15;;;6.45;;
75191;SDS011;63771;52.580;9.734;2023-05-10T06:17:23;8.43;;;5.73;;
75191;SDS011;63771;52.580;9.734;2023-05-10T06:19:50;7.50;;;6.63;;
75191;SDS011;63771;52.580;9.734;2023-05-10T06:22:15;6.88;;;6.38;;
75191;SDS011;63771;52.580;9.734;2023-05-10T06:24:40;7.57;;;6.70;;
75191;SDS011;63771;52.580;9.734;2023-05-10T06:27:06;8.30;;;7.13;;
75191;SDS011;63771;52.580;9.734;2023-05-10T06:29:31;7.45;;;6.25;;
75191;SDS011;63771;52.580;9.734;2023-05-10T06:31:57;9.52;;;6.57;;
75191;SDS011;63771;52.580;9.734;2023-05-10T06:34:22;6.82;;;6.20;;
75191;SDS011;63771;52.580;9.734;2023-05-10T06:36:48;6.82;;;6.22;;
75191;SDS011;63771;52.580;9.734;2023-05-10T06:39:13;7.37;;;6.77;;
75191;SDS011;63771;52.580;9.734;2023-05-10T06:41:38;7.50;;;6.60;;
75191;SDS011;63771;52.580;9.734;2023-05-10T06:44:04;7.73;;;7.00;;
75191;SDS011;63771;52.580;9.734;2023-05-10T06:46:30;7.53;;;6.78;;
75191;SDS011;63771;52.580;9.734;2023-05-10T06:48:55;8.95;;;6.90;;
75191;SDS011;63771;52.580;9.734;2023-05-10T06:51:20;7.93;;;7.17;;
75191;SDS011;63771;52.580;9.734;2023-05-10T06:53:46;8.30;;;7.05;;
75191;SDS011;63771;52.580;9.734;2023-05-10T06:56:11;7.75;;;6.97;;
75191;SDS011;63771;52.580;9.734;2023-05-10T06:58:36;7.25;;;6.55;;
75191;SDS011;63771;52.580;9.734;2023-05-10T07:01:03;8.13;;;6.53;;
75191;SDS011;63771;52.580;9.734;2023-05-10T07:03:29;9.90;;;6.93;;
75191;SDS011;63771;52.580;9.734;2023-05-10T07:05:56;9.20;;;6.63;;
75191;SDS011;63771;52.580;9.734;2023-05-10T07:08:25;7.55;;;6.88;;
75191;SDS011;63771;52.580;9.734;2023-05-10T07:10:50;9.10;;;6.77;;
75191;SDS011;63771;52.580;9.734;2023-05-10T07:13:15;7.87;;;7.23;;
75191;SDS011;63771;52.580;9.734;2023-05-10T07:15:41;7.93;;;7.13;;
75191;SDS011;63771;52.580;9.734;2023-05-10T07:18:07;6.72;;;6.13;;
75191;SDS011;63771;52.580;9.734;2023-05-10T07:20:32;8.13;;;6.93;;
75191;SDS011;63771;52.580;9.734;2023-05-10T07:22:57;8.10;;;7.30;;
75191;SDS011;63771;52.580;9.734;2023-05-10T07:25:23;9.03;;;7.47;;
75191;SDS011;63771;52.580;9.734;2023-05-10T07:27:49;9.70;;;8.40;;
75191;SDS011;63771;52.580;9.734;2023-05-10T07:30:14;8.23;;;7.40;;
75191;SDS011;63771;52.580;9.734;2023-05-10T07:32:40;15.32;;;8.73;;
75191;SDS011;63771;52.580;9.734;2023-05-10T07:35:06;9.40;;;8.10;;
75191;SDS011;63771;52.580;9.734;2023-05-10T07:37:32;8.98;;;8.07;;
75191;SDS011;63771;52.580;9.734;2023-05-10T07:39:57;10.73;;;8.10;;
75191;SDS011;63771;52.580;9.734;2023-05-10T07:42:23;8.60;;;7.60;;
75191;SDS011;63771;52.580;9.734;2023-05-10T07:44:48;8.90;;;7.23;;
75191;SDS011;63771;52.580;9.734;2023-05-10T07:47:13;8.83;;;7.93;;
75191;SDS011;63771;52.580;9.734;2023-05-10T07:49:39;8.33;;;7.53;;
75191;SDS011;63771;52.580;9.734;2023-05-10T07:52:04;10.88;;;7.90;;
75191;SDS011;63771;52.580;9.734;2023-05-10T07:54:30;8.55;;;6.80;;
75191;SDS011;63771;52.580;9.734;2023-05-10T07:56:55;9.60;;;7.53;;
75191;SDS011;63771;52.580;9.734;2023-05-10T07:59:20;10.38;;;8.27;;
75191;SDS011;63771;52.580;9.734;2023-05-10T08:01:46;9.77;;;6.93;;
75191;SDS011;63771;52.580;9.734;2023-05-10T08:04:11;8.63;;;6.70;;
75191;SDS011;63771;52.580;9.734;2023-05-10T08:06:36;8.40;;;7.53;;
75191;SDS011;63771;52.580;9.734;2023-05-10T08:09:02;9.00;;;8.13;;
75191;SDS011;63771;52.580;9.734;2023-05-10T08:11:27;8.30;;;7.30;;
75191;SDS011;63771;52.580;9.734;2023-05-10T08:13:53;8.17;;;7.47;;
75191;SDS011;63771;52.580;9.734;2023-05-10T08:16:18;9.35;;;6.57;;
75191;SDS011;63771;52.580;9.734;2023-05-10T08:18:45;7.85;;;7.03;;
75191;SDS011;63771;52.580;9.734;2023-05-10T08:21:11;7.18;;;6.40;;
75191;SDS011;63771;52.580;9.734;2023-05-10T08:23:37;6.20;;;5.63;;
75191;SDS011;63771;52.580;9.734;2023-05-10T08:26:02;6.37;;;5.80;;
75191;SDS011;63771;52.580;9.734;2023-05-10T08:28:28;7.22;;;6.50;;
75191;SDS011;63771;52.580;9.734;2023-05-10T08:30:53;8.27;;;6.97;;
75191;SDS011;63771;52.580;9.734;2023-05-10T08:33:19;5.57;;;5.10;;
75191;SDS011;63771;52.580;9.734;2023-05-10T08:35:44;5.13;;;4.72;;
75191;SDS011;63771;52.580;9.734;2023-05-10T08:38:10;5.57;;;5.13;;
75191;SDS011;63771;52.580;9.734;2023-05-10T08:40:36;5.70;;;4.85;;
75191;SDS011;63771;52.580;9.734;2023-05-10T08:43:06;4.78;;;4.35;;
75191;SDS011;63771;52.580;9.734;2023-05-10T08:45:35;4.75;;;4.45;;
75191;SDS011;63771;52.580;9.734;2023-05-10T08:48:02;4.47;;;4.13;;
75191;SDS011;63771;52.580;9.734;2023-05-10T08:50:30;5.43;;;4.70;;
75191;SDS011;63771;52.580;9.734;2023-05-10T08:52:57;4.20;;;3.90;;
75191;SDS011;63771;52.580;9.734;2023-05-10T08:55:25;3.90;;;3.60;;
75191;SDS011;63771;52.580;9.734;2023-05-10T08:57:50;5.90;;;4.47;;
75191;SDS011;63771;52.580;9.734;2023-05-10T09:00:16;4.80;;;4.25;;
75191;SDS011;63771;52.580;9.734;2023-05-10T09:02:43;4.07;;;3.70;;
75191;SDS011;63771;52.580;9.734;2023-05-10T09:05:09;4.63;;;4.32;;
75191;SDS011;63771;52.580;9.734;2023-05-10T09:07:35;4.40;;;4.10;;
75191;SDS011;63771;52.580;9.734;2023-05-10T09:10:01;3.55;;;3.28;;
75191;SDS011;63771;52.580;9.734;2023-05-10T09:12:27;4.20;;;3.80;;
75191;SDS011;63771;52.580;9.734;2023-05-10T09:14:53;3.70;;;3.40;;
75191;SDS011;63771;52.580;9.734;2023-05-10T09:17:20;4.80;;;3.67;;
75191;SDS011;63771;52.580;9.734;2023-05-10T09:19:48;3.45;;;3.10;;
75191;SDS011;63771;52.580;9.734;2023-05-10T09:22:13;4.47;;;3.27;;
75191;SDS011;63771;52.580;9.734;2023-05-10T09:24:38;3.90;;;3.50;;
75191;SDS011;63771;52.580;9.734;2023-05-10T09:27:09;3.60;;;3.38;;
75191;SDS011;63771;52.580;9.734;2023-05-10T09:29:41;3.05;;;2.70;;
75191;SDS011;63771;52.580;9.734;2023-05-10T09:32:07;2.60;;;2.50;;
75191;SDS011;63771;52.580;9.734;2023-05-10T09:34:33;2.80;;;2.70;;
75191;SDS011;63771;52.580;9.734;2023-05-10T09:37:00;2.35;;;2.25;;
75191;SDS011;63771;52.580;9.734;2023-05-10T09:39:31;2.40;;;2.30;;
75191;SDS011;63771;52.580;9.734;2023-05-10T09:42:02;2.97;;;2.78;;
75191;SDS011;63771;52.580;9.734;2023-05-10T09:44:30;2.60;;;2.50;;
75191;SDS011;63771;52.580;9.734;2023-05-10T09:46:56;3.08;;;2.88;;
75191;SDS011;63771;52.580;9.734;2023-05-10T09:49:22;2.50;;;2.40;;
75191;SDS011;63771;52.580;9.734;2023-05-10T09:51:57;3.53;;;3.10;;
75191;SDS011;63771;52.580;9.734;2023-05-10T09:54:24;2.88;;;2.67;;
75191;SDS011;63771;52.580;9.734;2023-05-10T09:56:50;3.30;;;3.10;;
75191;SDS011;63771;52.580;9.734;2023-05-10T09:59:15;3.00;;;2.80;;
75191;SDS011;63771;52.580;9.734;2023-05-10T10:01:42;3.25;;;3.05;;
75191;SDS011;63771;52.580;9.734;2023-05-10T10:04:15;3.22;;;2.90;;
75191;SDS011;63771;52.580;9.734;2023-05-10T10:06:41;3.03;;;2.83;;
75191;SDS011;63771;52.580;9.734;2023-05-10T10:09:06;2.88;;;2.67;;
75191;SDS011;63771;52.580;9.734;2023-05-10T10:11:36;3.60;;;3.30;;
75191;SDS011;63771;52.580;9.734;2023-05-10T10:14:02;2.90;;;2.72;;
75191;SDS011;63771;52.580;9.734;2023-05-10T10:16:28;3.13;;;2.92;;
75191;SDS011;63771;52.580;9.734;2023-05-10T10:18:55;3.22;;;3.03;;
75191;SDS011;63771;52.580;9.734;2023-05-10T10:21:20;5.32;;;3.05;;
75191;SDS011;63771;52.580;9.734;2023-05-10T10:23:47;3.05;;;2.85;;
75191;SDS011;63771;52.580;9.734;2023-05-10T10:26:12;3.35;;;3.05;;
75191;SDS011;63771;52.580;9.734;2023-05-10T10:28:49;4.32;;;3.38;;
75191;SDS011;63771;52.580;9.734;2023-05-10T10:31:39;4.72;;;3.33;;
75191;SDS011;63771;52.580;9.734;2023-05-10T10:34:10;3.83;;;3.58;;
75191;SDS011;63771;52.580;9.734;2023-05-10T10:36:45;3.90;;;3.60;;
75191;SDS011;63771;52.580;9.734;2023-05-10T10:39:12;4.15;;;3.95;;
75191;SDS011;63771;52.580;9.734;2023-05-10T10:41:39;4.30;;;4.00;;
75191;SDS011;63771;52.580;9.734;2023-05-10T10:50:22;3.40;;;3.15;;
75191;SDS011;63771;52.580;9.734;2023-05-10T10:52:26;3.95;;;3.30;;
75191;SDS011;63771;52.580;9.734;2023-05-10T10:57:27;3.70;;;3.40;;
75191;SDS011;63771;52.580;9.734;2023-05-10T11:02:44;3.58;;;3.28;;
75191;SDS011;63771;52.580;9.734;2023-05-10T11:08:00;3.13;;;2.92;;
75191;SDS011;63771;52.580;9.734;2023-05-10T11:10:31;3.15;;;2.95;;
75191;SDS011;63771;52.580;9.734;2023-05-10T11:13:03;3.75;;;3.22;;
75191;SDS011;63771;52.580;9.734;2023-05-10T11:15:37;4.25;;;3.60;;
75191;SDS011;63771;52.580;9.734;2023-05-10T11:18:20;3.75;;;3.47;;
75191;SDS011;63771;52.580;9.734;2023-05-10T11:20:51;5.25;;;3.92;;
75191;SDS011;63771;52.580;9.734;2023-05-10T11:23:21;3.95;;;3.40;;
75191;SDS011;63771;52.580;9.734;2023-05-10T11:25:47;3.15;;;2.95;;
75191;SDS011;63771;52.580;9.734;2023-05-10T11:28:16;3.30;;;3.10;;
75191;SDS011;63771;52.580;9.734;2023-05-10T11:30:43;4.30;;;3.92;;
75191;SDS011;63771;52.580;9.734;2023-05-10T11:33:09;2.90;;;2.70;;
75191;SDS011;63771;52.580;9.734;2023-05-10T11:35:40;3.80;;;3.50;;
75191;SDS011;63771;52.580;9.734;2023-05-10T11:38:09;3.67;;;3.38;;
75191;SDS011;63771;52.580;9.734;2023-05-10T11:40:36;3.72;;;2.97;;
75191;SDS011;63771;52.580;9.734;2023-05-10T11:43:03;3.92;;;3.63;;
75191;SDS011;63771;52.580;9.734;2023-05-10T11:45:29;6.35;;;3.55;;
75191;SDS011;63771;52.580;9.734;2023-05-10T11:50:22;3.72;;;3.05;;
75191;SDS011;63771;52.580;9.734;2023-05-10T11:52:54;3.60;;;3.00;;
75191;SDS011;63771;52.580;9.734;2023-05-10T11:55:21;5.90;;;3.17;;
75191;SDS011;63771;52.580;9.734;2023-05-10T11:57:46;4.00;;;3.00;;
75191;SDS011;63771;52.580;9.734;2023-05-10T12:00:12;5.22;;;4.03;;
75191;SDS011;63771;52.580;9.734;2023-05-10T12:02:38;4.70;;;4.10;;
75191;SDS011;63771;52.580;9.734;2023-05-10T12:05:04;3.60;;;3.30;;
75191;SDS011;63771;52.580;9.734;2023-05-10T12:07:31;3.80;;;3.50;;
75191;SDS011;63771;52.580;9.734;2023-05-10T12:10:09;3.67;;;3.37;;
75191;SDS011;63771;52.580;9.734;2023-05-10T12:12:40;3.28;;;3.08;;
75191;SDS011;63771;52.580;9.734;2023-05-10T12:15:10;3.38;;;3.15;;
75191;SDS011;63771;52.580;9.734;2023-05-10T12:17:44;5.88;;;3.38;;
75191;SDS011;63771;52.580;9.734;2023-05-10T12:22:44;3.08;;;2.70;;
75191;SDS011;63771;52.580;9.734;2023-05-10T12:25:20;5.32;;;2.90;;
75191;SDS011;63771;52.580;9.734;2023-05-10T12:27:51;3.72;;;3.20;;
75191;SDS011;63771;52.580;9.734;2023-05-10T12:30:28;3.47;;;2.60;;
75191;SDS011;63771;52.580;9.734;2023-05-10T12:32:59;3.17;;;2.97;;
75191;SDS011;63771;52.580;9.734;2023-05-10T12:35:43;2.78;;;2.55;;
75191;SDS011;63771;52.580;9.734;2023-05-10T12:41:17;3.47;;;3.17;;
75191;SDS011;63771;52.580;9.734;2023-05-10T12:43:43;3.65;;;3.35;;
75191;SDS011;63771;52.580;9.734;2023-05-10T12:46:11;3.97;;;3.58;;
75191;SDS011;63771;52.580;9.734;2023-05-10T12:48:38;3.50;;;3.20;;
75191;SDS011;63771;52.580;9.734;2023-05-10T12:51:04;3.00;;;2.80;;
75191;SDS011;63771;52.580;9.734;2023-05-10T12:53:30;3.55;;;3.25;;
75191;SDS011;63771;52.580;9.734;2023-05-10T12:55:56;3.00;;;2.60;;
75191;SDS011;63771;52.580;9.734;2023-05-10T12:58:22;2.28;;;1.80;;
75191;SDS011;63771;52.580;9.734;2023-05-10T13:00:47;2.30;;;2.00;;
75191;SDS011;63771;52.580;9.734;2023-05-10T13:03:12;3.50;;;2.37;;
75191;SDS011;63771;52.580;9.734;2023-05-10T13:05:38;5.23;;;3.17;;
75191;SDS011;63771;52.580;9.734;2023-05-10T13:08:03;3.55;;;3.20;;
75191;SDS011;63771;52.580;9.734;2023-05-10T13:10:29;6.18;;;3.13;;
75191;SDS011;63771;52.580;9.734;2023-05-10T13:12:56;6.15;;;4.35;;
75191;SDS011;63771;52.580;9.734;2023-05-10T13:15:22;7.40;;;4.68;;
75191;SDS011;63771;52.580;9.734;2023-05-10T13:17:47;7.38;;;4.60;;
75191;SDS011;63771;52.580;9.734;2023-05-10T13:20:13;6.17;;;5.30;;
75191;SDS011;63771;52.580;9.734;2023-05-10T13:22:38;7.80;;;5.18;;
75191;SDS011;63771;52.580;9.734;2023-05-10T13:25:04;8.40;;;6.50;;
75191;SDS011;63771;52.580;9.734;2023-05-10T13:27:30;9.68;;;5.88;;
75191;SDS011;63771;52.580;9.734;2023-05-10T13:29:55;7.97;;;5.25;;
75191;SDS011;63771;52.580;9.734;2023-05-10T13:32:20;6.13;;;5.20;;
75191;SDS011;63771;52.580;9.734;2023-05-10T13:34:46;6.22;;;5.63;;
75191;SDS011;63771;52.580;9.734;2023-05-10T13:37:12;7.53;;;4.75;;
75191;SDS011;63771;52.580;9.734;2023-05-10T13:39:37;6.63;;;5.45;;
75191;SDS011;63771;52.580;9.734;2023-05-10T13:42:03;6.57;;;4.13;;
75191;SDS011;63771;52.580;9.734;2023-05-10T13:44:28;6.97;;;5.50;;
75191;SDS011;63771;52.580;9.734;2023-05-10T13:46:54;10.55;;;6.05;;
75191;SDS011;63771;52.580;9.734;2023-05-10T13:49:20;10.30;;;5.20;;
75191;SDS011;63771;52.580;9.734;2023-05-10T13:51:46;8.40;;;5.22;;
75191;SDS011;63771;52.580;9.734;2023-05-10T13:54:11;10.75;;;6.78;;
75191;SDS011;63771;52.580;9.734;2023-05-10T13:56:37;6.60;;;5.43;;
75191;SDS011;63771;52.580;9.734;2023-05-10T13:59:02;5.30;;;4.57;;
75191;SDS011;63771;52.580;9.734;2023-05-10T14:01:27;7.57;;;5.43;;
75191;SDS011;63771;52.580;9.734;2023-05-10T14:03:53;8.60;;;6.00;;
75191;SDS011;63771;52.580;9.734;2023-05-10T14:06:18;8.53;;;6.27;;
75191;SDS011;63771;52.580;9.734;2023-05-10T14:08:43;8.83;;;5.97;;
75191;SDS011;63771;52.580;9.734;2023-05-10T14:11:09;7.43;;;5.90;;
75191;SDS011;63771;52.580;9.734;2023-05-10T14:13:34;8.57;;;6.97;;
75191;SDS011;63771;52.580;9.734;2023-05-10T14:15:59;7.25;;;6.35;;
75191;SDS011;63771;52.580;9.734;2023-05-10T14:18:26;9.90;;;7.18;;
75191;SDS011;63771;52.580;9.734;2023-05-10T14:20:54;13.30;;;7.20;;
75191;SDS011;63771;52.580;9.734;2023-05-10T14:23:20;11.35;;;6.90;;
75191;SDS011;63771;52.580;9.734;2023-05-10T14:25:49;10.63;;;7.72;;
75191;SDS011;63771;52.580;9.734;2023-05-10T14:28:14;8.55;;;7.13;;
75191;SDS011;63771;52.580;9.734;2023-05-10T14:30:40;10.38;;;7.32;;
75191;SDS011;63771;52.580;9.734;2023-05-10T14:33:06;9.80;;;7.17;;
75191;SDS011;63771;52.580;9.734;2023-05-10T14:35:32;14.07;;;7.57;;
75191;SDS011;63771;52.580;9.734;2023-05-10T14:37:58;9.07;;;7.13;;
75191;SDS011;63771;52.580;9.734;2023-05-10T14:40:23;9.48;;;6.65;;
75191;SDS011;63771;52.580;9.734;2023-05-10T14:42:49;8.18;;;7.32;;
75191;SDS011;63771;52.580;9.734;2023-05-10T14:45:15;9.52;;;7.07;;
75191;SDS011;63771;52.580;9.734;2023-05-10T14:47:40;10.60;;;7.68;;
75191;SDS011;63771;52.580;9.734;2023-05-10T14:50:05;9.10;;;7.47;;
75191;SDS011;63771;52.580;9.734;2023-05-10T14:52:31;13.13;;;7.70;;
75191;SDS011;63771;52.580;9.734;2023-05-10T14:54:56;12.63;;;6.75;;
75191;SDS011;63771;52.580;9.734;2023-05-10T14:57:23;10.90;;;7.55;;
75191;SDS011;63771;52.580;9.734;2023-05-10T14:59:49;9.98;;;7.43;;
75191;SDS011;63771;52.580;9.734;2023-05-10T15:02:14;9.83;;;7.10;;
75191;SDS011;63771;52.580;9.734;2023-05-10T15:04:40;10.32;;;7.18;;
75191;SDS011;63771;52.580;9.734;2023-05-10T15:07:05;10.70;;;7.30;;
75191;SDS011;63771;52.580;9.734;2023-05-10T15:09:30;9.43;;;7.30;;
75191;SDS011;63771;52.580;9.734;2023-05-10T15:11:56;11.18;;;7.57;;
75191;SDS011;63771;52.580;9.734;2023-05-10T15:14:21;10.73;;;7.90;;
75191;SDS011;63771;52.580;9.734;2023-05-10T15:16:47;10.05;;;7.75;;
75191;SDS011;63771;52.580;9.734;2023-05-10T15:19:13;12.00;;;8.10;;
75191;SDS011;63771;52.580;9.734;2023-05-10T15:21:38;9.37;;;7.20;;
75191;SDS011;63771;52.580;9.734;2023-05-10T15:24:07;10.57;;;7.78;;
75191;SDS011;63771;52.580;9.734;2023-05-10T15:26:32;9.65;;;6.90;;